createdAt,value
2019-02-17T00:01:40.574Z,7.62
2019-02-17T00:04:07.765Z,7.69
2019-02-17T00:06:34.881Z,7.62
2019-02-17T00:09:01.891Z,7.56
2019-02-17T00:11:28.832Z,7.44
2019-02-17T00:13:55.806Z,7.44
2019-02-17T00:16:22.838Z,7.31
2019-02-17T00:18:49.807Z,7.37
2019-02-17T00:21:16.804Z,7.31
2019-02-17T00:23:43.757Z,7.37
2019-02-17T00:26:10.901Z,7.50
2019-02-17T00:28:37.976Z,7.37
2019-02-17T00:31:05.045Z,7.44
2019-02-17T00:33:31.999Z,7.37
2019-02-17T00:35:58.969Z,7.37
2019-02-17T00:38:26.031Z,7.37
2019-02-17T00:40:53.002Z,7.25
2019-02-17T00:43:20.921Z,7.37
2019-02-17T00:45:47.921Z,7.25
2019-02-17T00:48:14.902Z,7.19
2019-02-17T00:50:41.852Z,7.19
2019-02-17T00:53:08.870Z,7.19
2019-02-17T00:55:35.885Z,7.19
2019-02-17T00:58:02.862Z,7.06
2019-02-17T01:00:29.834Z,7.19
2019-02-17T01:02:56.766Z,7.31
2019-02-17T01:05:23.734Z,7.19
2019-02-17T01:07:50.696Z,7.12
2019-02-17T01:10:17.612Z,7.19
2019-02-17T01:12:44.563Z,7.06
2019-02-17T01:15:11.662Z,7.06
2019-02-17T01:17:38.723Z,7.12
2019-02-17T01:20:06.126Z,7.12
2019-02-17T01:22:33.048Z,7.06
2019-02-17T01:24:59.993Z,7.19
2019-02-17T01:27:26.944Z,7.00
2019-02-17T01:29:53.853Z,6.94
2019-02-17T01:32:20.812Z,7.12
2019-02-17T01:34:47.769Z,7.06
2019-02-17T01:37:14.739Z,6.87
2019-02-17T01:39:50.673Z,6.94
2019-02-17T01:42:18.216Z,6.87
2019-02-17T01:44:45.164Z,6.81
2019-02-17T01:47:16.862Z,6.62
2019-02-17T01:49:43.951Z,6.87
2019-02-17T01:52:10.879Z,6.87
2019-02-17T01:54:37.866Z,6.87
2019-02-17T01:57:18.002Z,7.06
2019-02-17T01:59:46.810Z,6.94
2019-02-17T02:02:20.590Z,6.94
2019-02-17T02:04:51.218Z,6.94
2019-02-17T02:07:22.897Z,7.06
2019-02-17T02:09:50.028Z,6.87
2019-02-17T02:12:25.160Z,6.87
2019-02-17T02:14:59.711Z,6.75
2019-02-17T02:17:26.896Z,6.75
2019-02-17T02:19:53.818Z,6.75
2019-02-17T02:22:20.840Z,6.69
2019-02-17T02:24:47.776Z,6.56
2019-02-17T02:27:14.720Z,6.75
2019-02-17T02:29:41.713Z,6.50
2019-02-17T02:32:08.735Z,6.44
2019-02-17T02:34:35.683Z,6.69
2019-02-17T02:37:02.610Z,6.31
2019-02-17T02:39:29.507Z,6.50
2019-02-17T02:41:56.411Z,6.44
2019-02-17T02:44:23.418Z,6.25
2019-02-17T02:46:50.361Z,6.37
2019-02-17T02:49:17.313Z,6.44
2019-02-17T02:51:44.250Z,6.25
2019-02-17T02:54:11.178Z,6.25
2019-02-17T02:56:38.915Z,6.25
2019-02-17T02:59:05.856Z,6.12
2019-02-17T03:01:32.826Z,6.12
2019-02-17T03:03:59.777Z,6.19
2019-02-17T03:06:31.348Z,6.25
2019-02-17T03:08:58.381Z,6.12
2019-02-17T03:11:25.435Z,6.06
2019-02-17T03:13:52.414Z,6.12
2019-02-17T03:16:19.375Z,5.94
2019-02-17T03:18:46.303Z,6.00
2019-02-17T03:21:13.265Z,6.00
2019-02-17T03:23:40.176Z,6.06
2019-02-17T03:26:07.090Z,5.94
2019-02-17T03:28:34.013Z,5.94
2019-02-17T03:31:00.943Z,5.87
2019-02-17T03:33:27.913Z,5.81
2019-02-17T03:35:54.918Z,5.94
2019-02-17T03:38:21.828Z,6.06
2019-02-17T03:40:48.842Z,5.87
2019-02-17T03:43:15.842Z,5.94
2019-02-17T03:45:42.765Z,6.06
2019-02-17T03:48:09.764Z,5.94
2019-02-17T03:50:36.754Z,5.75
2019-02-17T03:53:03.677Z,5.69
2019-02-17T03:55:30.580Z,5.50
2019-02-17T03:57:57.528Z,5.50
2019-02-17T04:00:24.418Z,5.44
2019-02-17T04:02:51.369Z,5.44
2019-02-17T04:05:18.251Z,5.44
2019-02-17T04:07:45.264Z,5.44
2019-02-17T04:10:12.115Z,5.44
2019-02-17T04:12:39.019Z,5.37
2019-02-17T04:15:05.996Z,5.37
2019-02-17T04:17:32.901Z,5.37
2019-02-17T04:19:59.847Z,5.31
2019-02-17T04:22:26.751Z,5.31
2019-02-17T04:24:53.683Z,5.37
2019-02-17T04:27:20.610Z,5.31
2019-02-17T04:29:47.501Z,5.31
2019-02-17T04:32:14.377Z,5.37
2019-02-17T04:34:41.285Z,5.31
2019-02-17T04:37:08.218Z,5.44
2019-02-17T04:39:35.128Z,5.37
2019-02-17T04:42:02.012Z,5.31
2019-02-17T04:44:28.902Z,5.31
2019-02-17T04:46:55.816Z,5.31
2019-02-17T04:49:22.731Z,5.31
2019-02-17T04:51:49.747Z,5.31
2019-02-17T04:54:16.628Z,5.37
2019-02-17T04:56:43.531Z,5.25
2019-02-17T04:59:10.456Z,5.31
2019-02-17T05:01:37.401Z,5.31
2019-02-17T05:04:04.282Z,5.25
2019-02-17T05:06:31.357Z,5.25
2019-02-17T05:08:58.255Z,5.25
2019-02-17T05:11:25.159Z,5.25
2019-02-17T05:13:52.068Z,5.25
2019-02-17T05:16:18.972Z,5.31
2019-02-17T05:18:45.849Z,5.31
2019-02-17T05:21:12.771Z,5.25
2019-02-17T05:23:39.662Z,5.25
2019-02-17T05:26:06.608Z,5.25
2019-02-17T05:28:33.505Z,5.31
2019-02-17T05:31:00.457Z,5.31
2019-02-17T05:33:27.339Z,5.31
2019-02-17T05:35:54.267Z,5.25
2019-02-17T05:38:21.171Z,5.25
2019-02-17T05:40:48.065Z,5.25
2019-02-17T05:43:14.967Z,5.25
2019-02-17T05:45:41.884Z,5.19
2019-02-17T05:48:08.811Z,5.25
2019-02-17T05:50:35.718Z,5.19
2019-02-17T05:53:02.618Z,5.19
2019-02-17T05:55:29.503Z,5.19
2019-02-17T05:57:56.396Z,5.12
2019-02-17T06:00:25.748Z,5.19
2019-02-17T06:02:52.738Z,5.06
2019-02-17T06:05:19.584Z,5.12
2019-02-17T06:07:46.515Z,5.12
2019-02-17T06:10:13.389Z,5.12
2019-02-17T06:12:40.310Z,5.19
2019-02-17T06:15:07.228Z,5.19
2019-02-17T06:17:34.129Z,5.19
2019-02-17T06:20:01.035Z,5.25
2019-02-17T06:22:27.938Z,5.19
2019-02-17T06:24:54.834Z,5.12
2019-02-17T06:27:21.825Z,5.19
2019-02-17T06:29:49.207Z,5.12
2019-02-17T06:32:15.664Z,5.12
2019-02-17T06:34:42.592Z,5.12
2019-02-17T06:37:09.504Z,5.12
2019-02-17T06:39:36.384Z,5.12
2019-02-17T06:42:03.356Z,5.12
2019-02-17T06:44:30.307Z,5.19
2019-02-17T06:46:58.716Z,5.19
2019-02-17T06:49:25.634Z,5.06
2019-02-17T06:51:52.545Z,5.12
2019-02-17T06:54:19.435Z,5.19
2019-02-17T06:56:51.465Z,5.19
2019-02-17T06:59:18.361Z,5.19
2019-02-17T07:01:45.263Z,5.19
2019-02-17T07:04:12.170Z,5.19
2019-02-17T07:06:43.382Z,5.25
2019-02-17T07:09:10.275Z,5.31
2019-02-17T07:11:37.163Z,5.31
2019-02-17T07:14:04.066Z,5.31
2019-02-17T07:16:30.984Z,5.25
2019-02-17T07:18:57.877Z,5.37
2019-02-17T07:21:24.777Z,5.31
2019-02-17T07:23:52.119Z,5.31
2019-02-17T07:26:19.034Z,5.44
2019-02-17T07:28:45.933Z,5.44
2019-02-17T07:31:12.821Z,5.37
2019-02-17T07:33:39.730Z,5.56
2019-02-17T07:36:06.642Z,5.56
2019-02-17T07:38:33.543Z,5.62
2019-02-17T07:41:00.492Z,5.69
2019-02-17T07:43:27.525Z,5.87
2019-02-17T07:45:54.491Z,6.25
2019-02-17T07:48:21.528Z,6.06
2019-02-17T07:50:48.523Z,6.25
2019-02-17T07:53:15.621Z,6.25
2019-02-17T07:55:42.670Z,6.37
2019-02-17T07:58:09.644Z,6.62
2019-02-17T08:00:36.606Z,6.37
2019-02-17T08:03:03.651Z,6.69
2019-02-17T08:05:30.777Z,6.62
2019-02-17T08:07:57.825Z,6.44
2019-02-17T08:10:24.844Z,6.50
2019-02-17T08:12:51.847Z,6.44
2019-02-17T08:15:18.920Z,6.44
2019-02-17T08:17:45.947Z,6.56
2019-02-17T08:20:12.997Z,6.69
2019-02-17T08:22:39.977Z,6.75
2019-02-17T08:25:07.181Z,6.69
2019-02-17T08:27:34.296Z,6.69
2019-02-17T08:30:01.312Z,6.81
2019-02-17T08:32:28.434Z,6.81
2019-02-17T08:34:55.550Z,6.87
2019-02-17T08:37:22.574Z,6.94
2019-02-17T08:39:49.512Z,6.87
2019-02-17T08:42:16.520Z,7.12
2019-02-17T08:44:43.473Z,7.00
2019-02-17T08:47:10.451Z,7.25
2019-02-17T08:49:37.480Z,7.19
2019-02-17T08:52:04.445Z,7.19
2019-02-17T08:54:31.381Z,7.31
2019-02-17T08:56:58.365Z,7.25
2019-02-17T08:59:25.489Z,7.37
2019-02-17T09:01:52.527Z,7.37
2019-02-17T09:04:19.446Z,7.37
2019-02-17T09:06:46.491Z,7.50
2019-02-17T09:09:13.563Z,7.56
2019-02-17T09:11:40.509Z,7.69
2019-02-17T09:14:07.544Z,7.56
2019-02-17T09:16:34.590Z,7.62
2019-02-17T09:19:01.597Z,7.81
2019-02-17T09:21:34.288Z,7.87
2019-02-17T09:24:01.393Z,7.87
2019-02-17T09:26:29.710Z,7.87
2019-02-17T09:28:55.540Z,8.00
2019-02-17T09:31:22.493Z,7.94
2019-02-17T09:33:49.460Z,7.94
2019-02-17T09:36:16.483Z,8.13
2019-02-17T09:38:43.444Z,8.13
2019-02-17T09:41:10.433Z,8.13
2019-02-17T09:43:37.507Z,8.13
2019-02-17T09:46:04.551Z,8.25
2019-02-17T09:48:31.645Z,8.31
2019-02-17T09:50:58.775Z,8.38
2019-02-17T09:53:25.741Z,8.31
2019-02-17T09:55:55.071Z,8.44
2019-02-17T09:58:19.768Z,8.44
2019-02-17T10:00:46.822Z,8.50
2019-02-17T10:03:13.830Z,8.50
2019-02-17T10:05:40.875Z,8.63
2019-02-17T10:08:07.876Z,8.75
2019-02-17T10:10:34.924Z,8.81
2019-02-17T10:13:02.243Z,8.94
2019-02-17T10:15:29.449Z,8.94
2019-02-17T10:17:56.457Z,9.00
2019-02-17T10:20:24.568Z,9.13
2019-02-17T10:22:50.499Z,9.13
2019-02-17T10:25:17.638Z,9.13
2019-02-17T10:27:44.879Z,9.19
2019-02-17T10:30:12.030Z,9.25
2019-02-17T10:32:39.332Z,9.31
2019-02-17T10:35:06.195Z,9.38
2019-02-17T10:37:33.165Z,9.50
2019-02-17T10:40:01.054Z,9.75
2019-02-17T10:42:28.167Z,9.75
2019-02-17T10:44:55.168Z,9.75
2019-02-17T10:47:22.187Z,9.88
2019-02-17T10:49:49.706Z,10.00
2019-02-17T10:52:16.775Z,10.13
2019-02-17T10:54:43.914Z,10.00
2019-02-17T10:57:10.948Z,10.00
2019-02-17T10:59:38.110Z,10.06
2019-02-17T11:02:05.146Z,10.13
2019-02-17T11:04:32.122Z,10.13
2019-02-17T11:06:59.940Z,10.50
2019-02-17T11:09:26.157Z,10.31
2019-02-17T11:11:53.151Z,10.31
2019-02-17T11:14:20.724Z,10.56
2019-02-17T11:16:48.771Z,10.63
2019-02-17T11:19:15.817Z,10.63
2019-02-17T11:21:42.963Z,10.50
2019-02-17T11:24:10.168Z,10.44
2019-02-17T11:26:39.255Z,10.44
2019-02-17T11:29:06.276Z,10.44
2019-02-17T11:31:33.300Z,10.69
2019-02-17T11:34:00.309Z,10.75
2019-02-17T11:36:27.573Z,11.06
2019-02-17T11:38:54.584Z,10.94
2019-02-17T11:41:21.617Z,10.81
2019-02-17T11:43:49.144Z,10.81
2019-02-17T11:46:16.280Z,10.75
2019-02-17T11:48:43.315Z,10.81
2019-02-17T11:51:10.579Z,10.75
2019-02-17T11:53:37.922Z,10.75
2019-02-17T11:56:05.333Z,10.88
2019-02-17T11:58:32.709Z,10.81
2019-02-17T12:00:59.753Z,11.12
2019-02-17T12:03:26.911Z,11.00
2019-02-17T12:05:54.215Z,10.94
2019-02-17T12:08:21.878Z,10.94
2019-02-17T12:10:49.115Z,10.94
2019-02-17T12:13:16.358Z,10.94
2019-02-17T12:15:43.561Z,11.00
2019-02-17T12:18:10.802Z,11.00
2019-02-17T12:20:50.625Z,11.06
2019-02-17T12:23:21.904Z,11.06
2019-02-17T12:25:58.742Z,11.12
2019-02-17T12:28:30.022Z,11.25
2019-02-17T12:30:57.186Z,11.19
2019-02-17T12:33:24.710Z,11.12
2019-02-17T12:35:52.000Z,11.25
2019-02-17T12:38:19.288Z,11.63
2019-02-17T12:40:46.608Z,11.44
2019-02-17T12:43:14.111Z,11.38
2019-02-17T12:45:41.334Z,11.31
2019-02-17T12:48:08.585Z,11.50
2019-02-17T12:50:35.871Z,11.50
2019-02-17T12:53:03.486Z,11.44
2019-02-17T12:55:32.609Z,11.50
2019-02-17T12:58:00.921Z,11.63
2019-02-17T13:00:29.299Z,11.50
2019-02-17T13:02:57.846Z,11.50
2019-02-17T13:05:25.222Z,11.69
2019-02-17T13:07:52.199Z,11.75
2019-02-17T13:10:19.297Z,11.69
2019-02-17T13:12:46.257Z,11.75
2019-02-17T13:15:13.299Z,11.75
2019-02-17T13:17:40.324Z,11.81
2019-02-17T13:20:09.126Z,11.94
2019-02-17T13:22:36.142Z,11.88
2019-02-17T13:25:03.186Z,12.06
2019-02-17T13:27:30.142Z,12.06
2019-02-17T13:29:57.230Z,12.06
2019-02-17T13:32:24.172Z,11.88
2019-02-17T13:34:51.237Z,11.88
2019-02-17T13:37:18.345Z,11.88
2019-02-17T13:39:46.098Z,12.06
2019-02-17T13:42:13.150Z,11.94
2019-02-17T13:44:40.351Z,12.00
2019-02-17T13:47:07.318Z,12.06
2019-02-17T13:49:34.284Z,12.13
2019-02-17T13:52:01.256Z,12.06
2019-02-17T13:54:28.179Z,12.31
2019-02-17T13:56:55.180Z,12.25
2019-02-17T13:59:22.694Z,12.19
2019-02-17T14:01:49.657Z,12.25
2019-02-17T14:04:16.578Z,12.13
2019-02-17T14:06:43.614Z,12.13
2019-02-17T14:09:10.640Z,12.25
2019-02-17T14:11:37.645Z,12.19
2019-02-17T14:14:04.671Z,12.13
2019-02-17T14:16:31.730Z,12.37
2019-02-17T14:18:58.686Z,12.25
2019-02-17T14:21:25.875Z,12.13
2019-02-17T14:23:52.825Z,12.25
2019-02-17T14:26:19.826Z,12.25
2019-02-17T14:28:46.990Z,12.13
2019-02-17T14:31:13.778Z,12.44
2019-02-17T14:33:41.609Z,12.25
2019-02-17T14:36:08.589Z,12.25
2019-02-17T14:38:35.825Z,12.25
2019-02-17T14:41:02.831Z,12.19
2019-02-17T14:43:30.098Z,12.13
2019-02-17T14:46:09.928Z,12.31
2019-02-17T14:48:37.176Z,12.44
2019-02-17T14:51:07.173Z,12.19
2019-02-17T14:53:34.396Z,12.13
2019-02-17T14:56:01.944Z,12.13
2019-02-17T14:58:28.926Z,12.13
2019-02-17T15:00:55.902Z,12.19
2019-02-17T15:03:23.811Z,12.37
2019-02-17T15:05:50.919Z,12.25
2019-02-17T15:08:17.893Z,12.19
2019-02-17T15:10:44.827Z,12.25
2019-02-17T15:13:11.862Z,12.37
2019-02-17T15:15:39.008Z,12.19
2019-02-17T15:18:05.980Z,12.25
2019-02-17T15:20:32.940Z,12.19
2019-02-17T15:22:59.930Z,12.19
2019-02-17T15:25:26.938Z,12.19
2019-02-17T15:27:53.884Z,12.13
2019-02-17T15:30:21.004Z,12.13
2019-02-17T15:32:48.813Z,12.06
2019-02-17T15:35:16.442Z,12.00
2019-02-17T15:37:43.594Z,12.00
2019-02-17T15:40:10.692Z,12.13
2019-02-17T15:42:37.963Z,12.25
2019-02-17T15:45:06.213Z,12.13
2019-02-17T15:47:33.343Z,12.06
2019-02-17T15:50:00.360Z,11.88
2019-02-17T15:52:30.060Z,11.81
2019-02-17T15:54:55.200Z,11.88
2019-02-17T15:57:22.263Z,11.81
2019-02-17T15:59:49.283Z,11.94
2019-02-17T16:02:16.329Z,12.13
2019-02-17T16:04:45.122Z,12.00
2019-02-17T16:07:11.327Z,11.81
2019-02-17T16:09:38.430Z,11.75
2019-02-17T16:12:05.518Z,11.63
2019-02-17T16:14:32.552Z,11.56
2019-02-17T16:16:59.633Z,11.94
2019-02-17T16:19:26.635Z,11.81
2019-02-17T16:21:53.631Z,11.75
2019-02-17T16:24:20.770Z,11.69
2019-02-17T16:26:48.502Z,11.56
2019-02-17T16:29:15.504Z,11.44
2019-02-17T16:31:42.533Z,11.38
2019-02-17T16:34:09.577Z,11.44
2019-02-17T16:36:36.637Z,11.31
2019-02-17T16:39:06.069Z,11.25
2019-02-17T16:41:33.194Z,11.31
2019-02-17T16:44:00.237Z,11.25
2019-02-17T16:46:27.291Z,11.31
2019-02-17T16:48:54.255Z,11.50
2019-02-17T16:51:21.590Z,11.31
2019-02-17T16:53:48.796Z,11.25
2019-02-17T16:56:15.830Z,11.19
2019-02-17T16:58:42.861Z,11.12
2019-02-17T17:01:09.863Z,11.06
2019-02-17T17:03:36.923Z,10.94
2019-02-17T17:06:03.975Z,10.88
2019-02-17T17:08:31.019Z,10.88
2019-02-17T17:10:58.098Z,10.88
2019-02-17T17:13:25.144Z,10.81
2019-02-17T17:15:52.256Z,10.81
2019-02-17T17:18:19.298Z,10.75
2019-02-17T17:20:47.601Z,10.81
2019-02-17T17:23:14.719Z,10.69
2019-02-17T17:25:41.925Z,10.75
2019-02-17T17:28:09.037Z,10.69
2019-02-17T17:30:36.775Z,10.69
2019-02-17T17:33:03.841Z,10.63
2019-02-17T17:35:30.915Z,10.63
2019-02-17T17:37:57.951Z,10.81
2019-02-17T17:40:24.995Z,10.56
2019-02-17T17:42:52.110Z,10.50
2019-02-17T17:45:19.258Z,10.63
2019-02-17T17:47:46.248Z,10.63
2019-02-17T17:50:13.295Z,10.50
2019-02-17T17:52:40.340Z,10.38
2019-02-17T17:55:07.435Z,10.44
2019-02-17T17:57:34.426Z,10.38
2019-02-17T18:00:03.271Z,10.38
2019-02-17T18:02:31.311Z,10.63
2019-02-17T18:05:08.466Z,10.56
2019-02-17T18:07:25.741Z,10.50
2019-02-17T18:09:53.004Z,10.50
2019-02-17T18:12:20.444Z,10.44
2019-02-17T18:14:47.874Z,10.38
2019-02-17T18:17:15.295Z,10.44
2019-02-17T18:19:42.743Z,10.38
2019-02-17T18:22:10.032Z,10.50
2019-02-17T18:27:42.828Z,10.50
2019-02-17T18:30:11.815Z,10.38
2019-02-17T18:32:40.896Z,10.44
2019-02-17T18:35:08.276Z,10.31
2019-02-17T18:37:35.894Z,10.25
2019-02-17T18:40:04.824Z,10.38
2019-02-17T18:42:32.663Z,10.19
2019-02-17T18:45:00.051Z,10.25
2019-02-17T18:47:27.809Z,10.25
2019-02-17T18:49:55.055Z,10.31
2019-02-17T18:52:22.186Z,10.06
2019-02-17T18:54:49.715Z,9.88
2019-02-17T18:57:17.610Z,10.19
2019-02-17T18:59:45.205Z,10.25
2019-02-17T19:02:12.658Z,10.31
2019-02-17T19:04:40.263Z,9.88
2019-02-17T19:07:08.325Z,10.00
2019-02-17T19:09:35.817Z,9.94
2019-02-17T19:12:03.095Z,10.13
2019-02-17T19:14:31.402Z,9.94
2019-02-17T19:16:58.480Z,9.94
2019-02-17T19:19:25.524Z,9.81
2019-02-17T19:21:52.714Z,9.75
2019-02-17T19:24:20.447Z,9.56
2019-02-17T19:26:47.846Z,9.50
2019-02-17T19:29:16.063Z,9.44
2019-02-17T19:31:43.338Z,9.69
2019-02-17T19:34:11.559Z,9.63
2019-02-17T19:36:39.248Z,9.63
2019-02-17T19:39:06.593Z,9.63
2019-02-17T19:41:34.246Z,9.69
2019-02-17T19:44:01.589Z,9.63
2019-02-17T19:46:29.951Z,9.69
2019-02-17T19:48:57.064Z,9.88
2019-02-17T19:51:24.513Z,9.63
2019-02-17T19:53:52.176Z,9.50
2019-02-17T19:56:19.545Z,9.56
2019-02-17T19:58:46.934Z,9.63
2019-02-17T20:01:14.530Z,9.50
2019-02-17T20:03:47.735Z,9.50
2019-02-17T20:06:16.940Z,9.50
2019-02-17T20:08:43.988Z,9.38
2019-02-17T20:11:11.090Z,9.44
2019-02-17T20:13:39.510Z,9.44
2019-02-17T20:16:07.028Z,9.31
2019-02-17T20:18:34.963Z,9.44
2019-02-17T20:21:02.518Z,9.31
2019-02-17T20:23:30.177Z,9.31
2019-02-17T20:25:58.029Z,9.13
2019-02-17T20:28:35.650Z,9.13
2019-02-17T20:30:52.295Z,9.19
2019-02-17T20:33:20.533Z,9.38
2019-02-17T20:35:48.212Z,9.13
2019-02-17T20:38:15.464Z,9.19
2019-02-17T20:40:42.762Z,9.31
2019-02-17T20:43:10.303Z,9.13
2019-02-17T20:45:37.803Z,9.25
2019-02-17T20:48:05.186Z,9.19
2019-02-17T20:50:33.393Z,9.38
2019-02-17T20:53:00.812Z,9.31
2019-02-17T20:55:28.830Z,8.94
2019-02-17T20:57:55.833Z,9.00
2019-02-17T21:00:29.989Z,9.00
2019-02-17T21:02:57.087Z,8.94
2019-02-17T21:05:24.075Z,9.06
2019-02-17T21:07:51.118Z,9.06
2019-02-17T21:10:18.353Z,9.00
2019-02-17T21:12:45.665Z,8.81
2019-02-17T21:15:13.107Z,8.63
2019-02-17T21:17:40.359Z,8.69
2019-02-17T21:20:07.811Z,8.63
2019-02-17T21:22:35.129Z,8.75
2019-02-17T21:25:02.451Z,8.56
2019-02-17T21:27:30.031Z,8.69
2019-02-17T21:29:57.783Z,8.75
2019-02-17T21:32:24.981Z,8.63
2019-02-17T21:34:52.443Z,8.63
2019-02-17T21:37:19.550Z,8.81
2019-02-17T21:39:46.753Z,8.63
2019-02-17T21:42:13.898Z,8.88
2019-02-17T21:44:40.958Z,8.75
2019-02-17T21:47:08.040Z,8.63
2019-02-17T21:49:35.027Z,8.75
2019-02-17T21:52:02.052Z,8.81
2019-02-17T21:54:29.106Z,8.69
2019-02-17T21:56:56.131Z,8.63
2019-02-17T21:59:23.224Z,8.56
2019-02-17T22:01:50.301Z,8.63
2019-02-17T22:04:17.243Z,8.63
2019-02-17T22:06:44.346Z,8.69
2019-02-17T22:09:11.365Z,8.69
2019-02-17T22:11:40.211Z,8.25
2019-02-17T22:14:07.325Z,8.38
2019-02-17T22:16:34.261Z,8.38
2019-02-17T22:19:01.272Z,8.38
2019-02-17T22:21:28.270Z,8.38
2019-02-17T22:23:55.229Z,8.38
2019-02-17T22:26:22.215Z,8.38
2019-02-17T22:28:49.214Z,8.31
2019-02-17T22:31:16.199Z,8.44
2019-02-17T22:33:43.174Z,8.25
2019-02-17T22:36:10.174Z,8.19
2019-02-17T22:38:37.124Z,8.19
2019-02-17T22:41:04.102Z,8.19
2019-02-17T22:43:31.045Z,8.19
2019-02-17T22:45:57.989Z,8.19
2019-02-17T22:48:24.911Z,8.19
2019-02-17T22:50:51.920Z,8.25
2019-02-17T22:53:18.868Z,8.19
2019-02-17T22:55:45.823Z,8.19
2019-02-17T22:58:14.221Z,8.06
2019-02-17T23:00:47.059Z,7.87
2019-02-17T23:03:14.163Z,8.00
2019-02-17T23:05:41.123Z,7.87
2019-02-17T23:08:08.121Z,8.00
2019-02-17T23:10:35.253Z,7.94
2019-02-17T23:13:02.163Z,7.94
2019-02-17T23:15:29.178Z,8.06
2019-02-17T23:22:50.524Z,7.75
2019-02-17T23:25:17.552Z,7.87
2019-02-17T23:27:44.536Z,7.69
2019-02-17T23:30:11.574Z,7.81
2019-02-17T23:32:38.626Z,8.00
2019-02-17T23:35:05.861Z,7.69
2019-02-17T23:37:33.063Z,7.75
2019-02-17T23:40:00.145Z,8.06
2019-02-17T23:42:27.112Z,7.87
2019-02-17T23:44:54.087Z,7.62
2019-02-17T23:47:21.085Z,7.81
2019-02-17T23:49:48.041Z,7.44
2019-02-17T23:52:15.017Z,7.37
2019-02-17T23:54:41.951Z,7.44
2019-02-17T23:57:08.955Z,7.62
2019-02-17T23:59:36.008Z,7.37
